• Join FlightAware (Why Join?)
  • Login
  • US Flag 
09:50PM EDT


 

Airport Tracker/Info


-or-


 

Live Flight TrackerFlight Track Log ✈ CES5387 ✈ 12-Sep-2013 ✈ ZSOF / HFE - ZGKL / KWL

Flight Track Log - Related Links

Times and Time Zones

All times are in EDT time to prevent confusion due to time zone crossing. See the CES5387 flight status page for this flight to view local times or setup timezone preferences in your user account.

Time Position Orientation Groundspeed Altitude Reporting Facility
EDT Latitude Longitude Course Direction KTS MPH feet Rate Location/Type
08:44AM 30.1416 115.3555 226° Southwest  Level Estimated
08:45AM 30.0727 115.2760 225° Southwest  Level Estimated
08:46AM 30.0038 115.1966 225° Southwest  Level Estimated
08:47AM 29.9348 115.1173 225° Southwest  Level Estimated
08:48AM 29.8658 115.0381 225° Southwest  Level Estimated
08:49AM 29.7967 114.9590 225° Southwest  Level Estimated
08:50AM 29.7276 114.8800 225° Southwest  Level Estimated
08:51AM 29.6584 114.8011 225° Southwest  Level Estimated
08:52AM 29.5892 114.7224 225° Southwest  Level Estimated
08:53AM 29.5199 114.6437 225° Southwest  Level Estimated
08:54AM 29.4506 114.5652 225° Southwest  Level Estimated
08:55AM 29.3813 114.4867 225° Southwest  Level Estimated
08:56AM 29.3119 114.4084 225° Southwest  Level Estimated
08:57AM 29.2424 114.3302 225° Southwest  Level Estimated
08:58AM 29.1729 114.2521 224° Southwest  Level Estimated
08:59AM 29.1034 114.1740 224° Southwest  Level Estimated
09:00AM 29.0338 114.0961 224° Southwest  Level Estimated
09:01AM 28.9642 114.0183 224° Southwest  Level Estimated
09:02AM 28.8945 113.9406 224° Southwest  Level Estimated
09:03AM 28.8248 113.8630 224° Southwest  Level Estimated
09:04AM 28.7550 113.7856 224° Southwest  Level Estimated
09:05AM 28.6852 113.7082 224° Southwest  Level Estimated
09:06AM 28.6154 113.6309 224° Southwest  Level Estimated
09:07AM 28.5455 113.5537 224° Southwest  Level Estimated
09:08AM 28.4755 113.4766 224° Southwest  Level Estimated
09:09AM 28.4056 113.3996 224° Southwest  Level Estimated
09:10AM 28.3355 113.3228 224° Southwest  Level Estimated
09:11AM 28.2655 113.2460 224° Southwest  Level Estimated
09:12AM 28.1954 113.1693 224° Southwest  Level Estimated
09:13AM 28.1252 113.0928 224° Southwest  Level Estimated
09:14AM 28.0550 113.0163 224° Southwest  Level Estimated
09:15AM 27.9848 112.9399 224° Southwest  Level Estimated
09:16AM 27.9145 112.8636 224° Southwest  Level Estimated
09:17AM 27.8442 112.7875 224° Southwest  Level Estimated
09:18AM 27.7738 112.7114 224° Southwest  Level Estimated
09:19AM 27.7034 112.6354 224° Southwest  Level Estimated
09:20AM 27.6330 112.5595 224° Southwest  Level Estimated
09:21AM 27.5625 112.4837 224° Southwest  Level Estimated
09:22AM 27.4919 112.4081 224° Southwest  Level Estimated
09:23AM 27.4214 112.3325 224° Southwest  Level Estimated
09:24AM 27.3508 112.2570 224° Southwest  Level Estimated
09:25AM 27.2801 112.1816 223° Southwest  Level Estimated
09:26AM 27.2094 112.1063 223° Southwest  Level Estimated
09:27AM 27.1387 112.0311 223° Southwest  Level Estimated
09:28AM 27.0679 111.9560 223° Southwest  Level Estimated
09:29AM 26.9971 111.8810 223° Southwest  Level Estimated
09:30AM 26.9263 111.8061 223° Southwest  Level Estimated
09:31AM 26.8554 111.7312 223° Southwest  Level Estimated
09:32AM 26.7844 111.6565 223° Southwest  Level Estimated
09:33AM 26.7135 111.5819 223° Southwest  Level Estimated
09:34AM 26.6425 111.5073 223° Southwest  Level Estimated
09:35AM 26.5714 111.4329 223° Southwest  Level Estimated
09:36AM 26.5003 111.3585 223° Southwest  Level Estimated
09:37AM 26.4292 111.2842 223° Southwest  Level Estimated
09:38AM 26.3580 111.2101 223° Southwest  Level Estimated
09:39AM 26.2868 111.1360 223° Southwest  Level Estimated
09:40AM 26.2156 111.0620 223° Southwest  Level Estimated
09:41AM 26.1443 110.9881 223° Southwest  Level Estimated
09:42AM 26.0730 110.9143 223° Southwest  Level Estimated
09:43AM 26.0017 110.8406 223° Southwest  Level Estimated
09:44AM 25.9303 110.7669 223° Southwest  Level Estimated
09:45AM 25.8589 110.6934 223° Southwest  Level Estimated
09:46AM 25.7874 110.6199 223° Southwest  Level Estimated
09:47AM 25.7093 110.5397 223° Southwest  Level Estimated
09:48AM 25.6311 110.4597 223° Southwest  Level Estimated
09:49AM 25.5528 110.3797 223° Southwest  Level Estimated
09:50AM 25.4745 110.2998 223° Southwest  Level Estimated
09:51AM 25.3962 110.2200 223° Southwest  Level Estimated
09:52AM 25.3178 110.1404 223° Southwest  Level Estimated
09:53AM 25.2394 110.0608 223° Southwest  Level Estimated
09:54AM 25.2181 110.0392 223° Southwest  Level Estimated
09:55AM 25.2181 110.0392 214° Southwest  Level Estimated
09:56AM 25.2181 110.0392 214° Southwest  Level Estimated
09:57AM 25.2181 110.0392 214° Southwest  Level Estimated
09:58AM 25.2181 110.0392 214° Southwest  Level Estimated
09:59AM 25.2181 110.0392 214° Southwest  Level Estimated
10:00AM 25.2181 110.0392 214° Southwest  Level Estimated